sensor_id;sensor_type;location;lat;lon;timestamp;P1;durP1;ratioP1;P2;durP2;ratioP2
12591;SDS011;6361;52.120;5.108;2023-03-02T00:01:20;39.58;;;24.52;;
12591;SDS011;6361;52.120;5.108;2023-03-02T00:03:57;40.72;;;25.23;;
12591;SDS011;6361;52.120;5.108;2023-03-02T00:06:23;40.28;;;25.42;;
12591;SDS011;6361;52.120;5.108;2023-03-02T00:08:50;44.25;;;26.23;;
12591;SDS011;6361;52.120;5.108;2023-03-02T00:11:16;44.60;;;26.35;;
12591;SDS011;6361;52.120;5.108;2023-03-02T00:13:41;41.10;;;25.83;;
12591;SDS011;6361;52.120;5.108;2023-03-02T00:16:07;41.95;;;25.45;;
12591;SDS011;6361;52.120;5.108;2023-03-02T00:18:35;41.50;;;25.80;;
12591;SDS011;6361;52.120;5.108;2023-03-02T00:21:00;42.65;;;25.85;;
12591;SDS011;6361;52.120;5.108;2023-03-02T00:23:26;44.85;;;25.95;;
12591;SDS011;6361;52.120;5.108;2023-03-02T00:25:51;39.13;;;25.55;;
12591;SDS011;6361;52.120;5.108;2023-03-02T00:28:16;46.70;;;26.63;;
12591;SDS011;6361;52.120;5.108;2023-03-02T00:30:42;42.50;;;26.02;;
12591;SDS011;6361;52.120;5.108;2023-03-02T00:33:07;45.25;;;27.50;;
12591;SDS011;6361;52.120;5.108;2023-03-02T00:35:41;44.70;;;27.95;;
12591;SDS011;6361;52.120;5.108;2023-03-02T00:38:06;49.85;;;29.65;;
12591;SDS011;6361;52.120;5.108;2023-03-02T00:40:33;48.95;;;29.15;;
12591;SDS011;6361;52.120;5.108;2023-03-02T00:42:58;51.72;;;30.05;;
12591;SDS011;6361;52.120;5.108;2023-03-02T00:45:24;51.70;;;30.88;;
12591;SDS011;6361;52.120;5.108;2023-03-02T00:47:49;54.78;;;30.27;;
12591;SDS011;6361;52.120;5.108;2023-03-02T00:50:15;58.65;;;31.42;;
12591;SDS011;6361;52.120;5.108;2023-03-02T00:52:40;54.15;;;30.85;;
12591;SDS011;6361;52.120;5.108;2023-03-02T00:55:05;52.80;;;29.10;;
12591;SDS011;6361;52.120;5.108;2023-03-02T00:57:31;56.90;;;30.42;;
12591;SDS011;6361;52.120;5.108;2023-03-02T00:59:57;48.97;;;28.48;;
12591;SDS011;6361;52.120;5.108;2023-03-02T01:02:22;53.78;;;30.10;;
12591;SDS011;6361;52.120;5.108;2023-03-02T01:04:48;53.53;;;29.90;;
12591;SDS011;6361;52.120;5.108;2023-03-02T01:07:17;55.53;;;30.70;;
12591;SDS011;6361;52.120;5.108;2023-03-02T01:09:44;53.33;;;29.25;;
12591;SDS011;6361;52.120;5.108;2023-03-02T01:12:10;56.70;;;29.40;;
12591;SDS011;6361;52.120;5.108;2023-03-02T01:14:37;53.55;;;28.45;;
12591;SDS011;6361;52.120;5.108;2023-03-02T01:17:03;49.80;;;27.90;;
12591;SDS011;6361;52.120;5.108;2023-03-02T01:19:30;54.38;;;30.17;;
12591;SDS011;6361;52.120;5.108;2023-03-02T01:21:56;53.50;;;30.30;;
12591;SDS011;6361;52.120;5.108;2023-03-02T01:24:21;54.97;;;29.58;;
12591;SDS011;6361;52.120;5.108;2023-03-02T01:26:47;50.55;;;28.00;;
12591;SDS011;6361;52.120;5.108;2023-03-02T01:29:13;54.42;;;29.00;;
12591;SDS011;6361;52.120;5.108;2023-03-02T01:31:38;51.83;;;29.27;;
12591;SDS011;6361;52.120;5.108;2023-03-02T01:34:03;51.63;;;29.40;;
12591;SDS011;6361;52.120;5.108;2023-03-02T01:36:29;51.15;;;29.23;;
12591;SDS011;6361;52.120;5.108;2023-03-02T01:38:54;54.05;;;29.80;;
12591;SDS011;6361;52.120;5.108;2023-03-02T01:41:20;52.75;;;28.77;;
12591;SDS011;6361;52.120;5.108;2023-03-02T01:43:45;48.90;;;27.92;;
12591;SDS011;6361;52.120;5.108;2023-03-02T01:48:44;53.08;;;28.38;;
12591;SDS011;6361;52.120;5.108;2023-03-02T01:51:11;53.95;;;29.02;;
12591;SDS011;6361;52.120;5.108;2023-03-02T01:53:40;53.05;;;29.65;;
12591;SDS011;6361;52.120;5.108;2023-03-02T01:56:11;51.38;;;29.35;;
12591;SDS011;6361;52.120;5.108;2023-03-02T01:58:38;45.38;;;24.45;;
12591;SDS011;6361;52.120;5.108;2023-03-02T02:01:05;53.97;;;29.42;;
12591;SDS011;6361;52.120;5.108;2023-03-02T02:03:39;53.75;;;29.75;;
12591;SDS011;6361;52.120;5.108;2023-03-02T02:08:42;57.10;;;29.90;;
12591;SDS011;6361;52.120;5.108;2023-03-02T02:11:08;54.58;;;29.70;;
12591;SDS011;6361;52.120;5.108;2023-03-02T02:13:34;54.33;;;29.05;;
12591;SDS011;6361;52.120;5.108;2023-03-02T02:16:00;54.17;;;30.25;;
12591;SDS011;6361;52.120;5.108;2023-03-02T02:18:25;52.33;;;29.65;;
12591;SDS011;6361;52.120;5.108;2023-03-02T02:20:51;52.58;;;28.63;;
12591;SDS011;6361;52.120;5.108;2023-03-02T02:23:23;50.45;;;26.95;;
12591;SDS011;6361;52.120;5.108;2023-03-02T02:28:33;47.78;;;25.95;;
12591;SDS011;6361;52.120;5.108;2023-03-02T02:33:41;46.67;;;26.52;;
12591;SDS011;6361;52.120;5.108;2023-03-02T02:36:09;49.33;;;27.02;;
12591;SDS011;6361;52.120;5.108;2023-03-02T02:38:39;47.80;;;26.48;;
12591;SDS011;6361;52.120;5.108;2023-03-02T02:41:05;50.63;;;27.98;;
12591;SDS011;6361;52.120;5.108;2023-03-02T02:43:33;49.83;;;27.65;;
12591;SDS011;6361;52.120;5.108;2023-03-02T02:45:58;46.95;;;26.33;;
12591;SDS011;6361;52.120;5.108;2023-03-02T02:48:24;45.67;;;25.42;;
12591;SDS011;6361;52.120;5.108;2023-03-02T02:50:55;49.47;;;25.95;;
12591;SDS011;6361;52.120;5.108;2023-03-02T02:53:29;46.97;;;26.55;;
12591;SDS011;6361;52.120;5.108;2023-03-02T02:55:59;43.28;;;25.27;;
12591;SDS011;6361;52.120;5.108;2023-03-02T03:01:11;44.40;;;25.00;;
12591;SDS011;6361;52.120;5.108;2023-03-02T03:03:38;43.90;;;25.38;;
12591;SDS011;6361;52.120;5.108;2023-03-02T03:06:05;46.17;;;25.38;;
12591;SDS011;6361;52.120;5.108;2023-03-02T03:08:47;46.53;;;26.02;;
12591;SDS011;6361;52.120;5.108;2023-03-02T03:11:16;48.83;;;26.35;;
12591;SDS011;6361;52.120;5.108;2023-03-02T03:13:47;48.03;;;26.30;;
12591;SDS011;6361;52.120;5.108;2023-03-02T03:16:18;46.67;;;26.92;;
12591;SDS011;6361;52.120;5.108;2023-03-02T03:18:44;44.20;;;25.42;;
12591;SDS011;6361;52.120;5.108;2023-03-02T03:21:10;44.17;;;24.35;;
12591;SDS011;6361;52.120;5.108;2023-03-02T03:23:36;47.75;;;25.90;;
12591;SDS011;6361;52.120;5.108;2023-03-02T03:26:02;48.63;;;26.60;;
12591;SDS011;6361;52.120;5.108;2023-03-02T03:28:28;41.35;;;23.60;;
12591;SDS011;6361;52.120;5.108;2023-03-02T03:30:54;44.33;;;24.65;;
12591;SDS011;6361;52.120;5.108;2023-03-02T03:33:20;42.63;;;24.63;;
12591;SDS011;6361;52.120;5.108;2023-03-02T03:35:45;44.97;;;25.10;;
12591;SDS011;6361;52.120;5.108;2023-03-02T03:38:11;46.38;;;25.17;;
12591;SDS011;6361;52.120;5.108;2023-03-02T03:40:36;45.22;;;25.05;;
12591;SDS011;6361;52.120;5.108;2023-03-02T03:43:02;45.63;;;25.67;;
12591;SDS011;6361;52.120;5.108;2023-03-02T03:45:28;41.22;;;22.88;;
12591;SDS011;6361;52.120;5.108;2023-03-02T03:47:53;44.45;;;24.17;;
12591;SDS011;6361;52.120;5.108;2023-03-02T03:50:19;41.28;;;23.52;;
12591;SDS011;6361;52.120;5.108;2023-03-02T03:52:44;41.78;;;23.67;;
12591;SDS011;6361;52.120;5.108;2023-03-02T03:55:10;41.10;;;22.83;;
12591;SDS011;6361;52.120;5.108;2023-03-02T03:57:36;42.28;;;23.23;;
12591;SDS011;6361;52.120;5.108;2023-03-02T04:00:04;41.08;;;23.83;;
12591;SDS011;6361;52.120;5.108;2023-03-02T04:02:31;40.90;;;23.80;;
12591;SDS011;6361;52.120;5.108;2023-03-02T04:04:57;42.25;;;23.23;;
12591;SDS011;6361;52.120;5.108;2023-03-02T04:07:30;40.45;;;22.73;;
12591;SDS011;6361;52.120;5.108;2023-03-02T04:09:58;39.50;;;22.98;;
12591;SDS011;6361;52.120;5.108;2023-03-02T04:12:27;40.95;;;22.02;;
12591;SDS011;6361;52.120;5.108;2023-03-02T04:14:53;37.58;;;22.23;;
12591;SDS011;6361;52.120;5.108;2023-03-02T04:17:18;38.95;;;21.92;;
12591;SDS011;6361;52.120;5.108;2023-03-02T04:19:44;38.65;;;22.50;;
12591;SDS011;6361;52.120;5.108;2023-03-02T04:22:09;39.33;;;23.02;;
12591;SDS011;6361;52.120;5.108;2023-03-02T04:24:35;39.40;;;22.80;;
12591;SDS011;6361;52.120;5.108;2023-03-02T04:27:00;42.10;;;23.80;;
12591;SDS011;6361;52.120;5.108;2023-03-02T04:29:26;41.58;;;22.65;;
12591;SDS011;6361;52.120;5.108;2023-03-02T04:31:53;36.63;;;21.67;;
12591;SDS011;6361;52.120;5.108;2023-03-02T04:34:19;39.40;;;21.98;;
12591;SDS011;6361;52.120;5.108;2023-03-02T04:36:44;39.97;;;22.67;;
12591;SDS011;6361;52.120;5.108;2023-03-02T04:39:10;40.85;;;22.90;;
12591;SDS011;6361;52.120;5.108;2023-03-02T04:41:37;37.63;;;22.15;;
12591;SDS011;6361;52.120;5.108;2023-03-02T04:44:03;37.85;;;21.70;;
12591;SDS011;6361;52.120;5.108;2023-03-02T04:46:28;39.70;;;22.30;;
12591;SDS011;6361;52.120;5.108;2023-03-02T04:48:54;40.20;;;22.80;;
12591;SDS011;6361;52.120;5.108;2023-03-02T04:51:20;38.60;;;21.80;;
12591;SDS011;6361;52.120;5.108;2023-03-02T04:53:59;38.40;;;22.17;;
12591;SDS011;6361;52.120;5.108;2023-03-02T04:56:26;40.20;;;22.38;;
12591;SDS011;6361;52.120;5.108;2023-03-02T04:58:51;37.38;;;21.85;;
12591;SDS011;6361;52.120;5.108;2023-03-02T05:01:17;39.10;;;22.60;;
12591;SDS011;6361;52.120;5.108;2023-03-02T05:03:43;37.88;;;21.98;;
12591;SDS011;6361;52.120;5.108;2023-03-02T05:06:09;36.13;;;20.27;;
12591;SDS011;6361;52.120;5.108;2023-03-02T05:08:35;38.75;;;22.50;;
12591;SDS011;6361;52.120;5.108;2023-03-02T05:11:00;40.22;;;22.77;;
12591;SDS011;6361;52.120;5.108;2023-03-02T05:13:26;42.53;;;21.75;;
12591;SDS011;6361;52.120;5.108;2023-03-02T05:15:52;39.15;;;22.23;;
12591;SDS011;6361;52.120;5.108;2023-03-02T05:18:17;42.13;;;23.08;;
12591;SDS011;6361;52.120;5.108;2023-03-02T05:20:44;39.28;;;22.20;;
12591;SDS011;6361;52.120;5.108;2023-03-02T05:23:15;39.22;;;22.80;;
12591;SDS011;6361;52.120;5.108;2023-03-02T05:25:53;40.10;;;22.38;;
12591;SDS011;6361;52.120;5.108;2023-03-02T05:28:20;40.38;;;21.75;;
12591;SDS011;6361;52.120;5.108;2023-03-02T05:30:46;39.90;;;22.27;;
12591;SDS011;6361;52.120;5.108;2023-03-02T05:33:12;40.90;;;22.95;;
12591;SDS011;6361;52.120;5.108;2023-03-02T05:35:38;42.05;;;22.60;;
12591;SDS011;6361;52.120;5.108;2023-03-02T05:38:04;43.03;;;22.92;;
12591;SDS011;6361;52.120;5.108;2023-03-02T05:40:30;41.10;;;22.00;;
12591;SDS011;6361;52.120;5.108;2023-03-02T05:42:56;41.80;;;23.10;;
12591;SDS011;6361;52.120;5.108;2023-03-02T05:45:26;44.17;;;23.23;;
12591;SDS011;6361;52.120;5.108;2023-03-02T05:47:53;43.83;;;23.35;;
12591;SDS011;6361;52.120;5.108;2023-03-02T05:50:18;45.70;;;23.77;;
12591;SDS011;6361;52.120;5.108;2023-03-02T05:52:44;47.28;;;22.83;;
12591;SDS011;6361;52.120;5.108;2023-03-02T05:55:09;39.03;;;21.73;;
12591;SDS011;6361;52.120;5.108;2023-03-02T05:57:36;46.90;;;23.33;;
12591;SDS011;6361;52.120;5.108;2023-03-02T06:00:02;41.88;;;22.30;;
12591;SDS011;6361;52.120;5.108;2023-03-02T06:02:29;45.85;;;23.10;;
12591;SDS011;6361;52.120;5.108;2023-03-02T06:04:55;43.45;;;23.42;;
12591;SDS011;6361;52.120;5.108;2023-03-02T06:07:20;41.95;;;22.98;;
12591;SDS011;6361;52.120;5.108;2023-03-02T06:09:46;41.08;;;22.67;;
12591;SDS011;6361;52.120;5.108;2023-03-02T06:12:11;42.15;;;22.42;;
12591;SDS011;6361;52.120;5.108;2023-03-02T06:14:36;44.38;;;23.55;;
12591;SDS011;6361;52.120;5.108;2023-03-02T06:17:02;44.28;;;23.80;;
12591;SDS011;6361;52.120;5.108;2023-03-02T06:19:27;45.17;;;23.55;;
12591;SDS011;6361;52.120;5.108;2023-03-02T06:21:52;48.35;;;23.70;;
12591;SDS011;6361;52.120;5.108;2023-03-02T06:24:18;42.50;;;22.83;;
12591;SDS011;6361;52.120;5.108;2023-03-02T06:26:43;42.22;;;23.35;;
12591;SDS011;6361;52.120;5.108;2023-03-02T06:29:09;41.53;;;22.38;;
12591;SDS011;6361;52.120;5.108;2023-03-02T06:31:36;42.50;;;23.17;;
12591;SDS011;6361;52.120;5.108;2023-03-02T06:34:01;47.63;;;23.67;;
12591;SDS011;6361;52.120;5.108;2023-03-02T06:36:27;43.13;;;23.48;;
12591;SDS011;6361;52.120;5.108;2023-03-02T06:38:53;39.53;;;22.02;;
12591;SDS011;6361;52.120;5.108;2023-03-02T06:41:18;41.92;;;22.25;;
12591;SDS011;6361;52.120;5.108;2023-03-02T06:43:44;50.70;;;24.45;;
12591;SDS011;6361;52.120;5.108;2023-03-02T06:46:10;43.15;;;23.63;;
12591;SDS011;6361;52.120;5.108;2023-03-02T06:48:35;41.47;;;22.77;;
12591;SDS011;6361;52.120;5.108;2023-03-02T06:51:01;45.80;;;23.92;;
12591;SDS011;6361;52.120;5.108;2023-03-02T06:53:26;48.15;;;24.38;;
12591;SDS011;6361;52.120;5.108;2023-03-02T06:55:51;45.78;;;24.20;;
12591;SDS011;6361;52.120;5.108;2023-03-02T06:58:17;42.50;;;22.63;;
12591;SDS011;6361;52.120;5.108;2023-03-02T07:00:42;46.40;;;23.85;;
12591;SDS011;6361;52.120;5.108;2023-03-02T07:03:08;46.33;;;24.25;;
12591;SDS011;6361;52.120;5.108;2023-03-02T07:05:33;43.88;;;23.25;;
12591;SDS011;6361;52.120;5.108;2023-03-02T07:08:00;47.53;;;24.10;;
12591;SDS011;6361;52.120;5.108;2023-03-02T07:10:26;44.67;;;23.95;;
12591;SDS011;6361;52.120;5.108;2023-03-02T07:12:52;46.08;;;22.67;;
12591;SDS011;6361;52.120;5.108;2023-03-02T07:15:17;46.75;;;23.92;;
12591;SDS011;6361;52.120;5.108;2023-03-02T07:17:43;42.50;;;22.95;;
12591;SDS011;6361;52.120;5.108;2023-03-02T07:20:10;47.80;;;23.48;;
12591;SDS011;6361;52.120;5.108;2023-03-02T07:22:36;43.88;;;23.30;;
12591;SDS011;6361;52.120;5.108;2023-03-02T07:25:02;44.47;;;23.65;;
12591;SDS011;6361;52.120;5.108;2023-03-02T07:27:27;43.85;;;23.52;;
12591;SDS011;6361;52.120;5.108;2023-03-02T07:29:53;42.38;;;23.38;;
12591;SDS011;6361;52.120;5.108;2023-03-02T07:32:18;42.60;;;23.00;;
12591;SDS011;6361;52.120;5.108;2023-03-02T07:34:43;44.97;;;23.63;;
12591;SDS011;6361;52.120;5.108;2023-03-02T07:37:09;47.53;;;24.27;;
12591;SDS011;6361;52.120;5.108;2023-03-02T07:39:34;43.08;;;22.80;;
12591;SDS011;6361;52.120;5.108;2023-03-02T07:42:00;45.45;;;23.17;;
12591;SDS011;6361;52.120;5.108;2023-03-02T07:44:26;43.38;;;23.15;;
12591;SDS011;6361;52.120;5.108;2023-03-02T07:46:51;44.20;;;22.70;;
12591;SDS011;6361;52.120;5.108;2023-03-02T07:49:16;43.97;;;22.58;;
12591;SDS011;6361;52.120;5.108;2023-03-02T07:51:42;46.20;;;23.27;;
12591;SDS011;6361;52.120;5.108;2023-03-02T07:54:07;44.15;;;22.58;;
12591;SDS011;6361;52.120;5.108;2023-03-02T07:56:33;42.53;;;22.98;;
12591;SDS011;6361;52.120;5.108;2023-03-02T07:58:58;42.15;;;23.05;;
12591;SDS011;6361;52.120;5.108;2023-03-02T08:01:24;44.00;;;23.40;;
12591;SDS011;6361;52.120;5.108;2023-03-02T08:03:49;44.03;;;22.70;;
12591;SDS011;6361;52.120;5.108;2023-03-02T08:06:15;42.63;;;21.15;;
12591;SDS011;6361;52.120;5.108;2023-03-02T08:08:40;43.58;;;22.27;;
12591;SDS011;6361;52.120;5.108;2023-03-02T08:11:06;42.90;;;21.92;;
12591;SDS011;6361;52.120;5.108;2023-03-02T08:13:33;40.35;;;21.17;;
12591;SDS011;6361;52.120;5.108;2023-03-02T08:15:59;39.08;;;20.60;;
12591;SDS011;6361;52.120;5.108;2023-03-02T08:18:25;37.15;;;19.95;;
12591;SDS011;6361;52.120;5.108;2023-03-02T08:20:51;38.80;;;20.55;;
12591;SDS011;6361;52.120;5.108;2023-03-02T08:23:17;35.80;;;19.92;;
12591;SDS011;6361;52.120;5.108;2023-03-02T08:25:43;36.60;;;19.88;;
12591;SDS011;6361;52.120;5.108;2023-03-02T08:28:08;37.63;;;19.33;;
12591;SDS011;6361;52.120;5.108;2023-03-02T08:30:34;39.00;;;18.73;;
12591;SDS011;6361;52.120;5.108;2023-03-02T08:32:59;38.85;;;20.10;;
12591;SDS011;6361;52.120;5.108;2023-03-02T08:35:24;39.35;;;20.15;;
12591;SDS011;6361;52.120;5.108;2023-03-02T08:37:50;34.38;;;18.95;;
12591;SDS011;6361;52.120;5.108;2023-03-02T08:40:15;35.35;;;18.98;;
12591;SDS011;6361;52.120;5.108;2023-03-02T08:42:40;36.40;;;18.48;;
12591;SDS011;6361;52.120;5.108;2023-03-02T08:45:06;37.40;;;19.75;;
12591;SDS011;6361;52.120;5.108;2023-03-02T08:47:32;33.63;;;17.80;;
12591;SDS011;6361;52.120;5.108;2023-03-02T08:49:57;36.97;;;19.63;;
12591;SDS011;6361;52.120;5.108;2023-03-02T08:52:22;35.05;;;18.95;;
12591;SDS011;6361;52.120;5.108;2023-03-02T08:54:48;41.03;;;20.15;;
12591;SDS011;6361;52.120;5.108;2023-03-02T08:57:13;33.25;;;18.00;;
12591;SDS011;6361;52.120;5.108;2023-03-02T08:59:38;35.25;;;17.90;;
12591;SDS011;6361;52.120;5.108;2023-03-02T09:02:04;30.42;;;16.20;;
12591;SDS011;6361;52.120;5.108;2023-03-02T09:04:29;33.95;;;18.17;;
12591;SDS011;6361;52.120;5.108;2023-03-02T09:06:54;34.35;;;17.67;;
12591;SDS011;6361;52.120;5.108;2023-03-02T09:09:20;32.08;;;17.77;;
12591;SDS011;6361;52.120;5.108;2023-03-02T09:11:45;32.22;;;16.75;;
12591;SDS011;6361;52.120;5.108;2023-03-02T09:14:11;32.95;;;17.63;;
12591;SDS011;6361;52.120;5.108;2023-03-02T09:16:36;34.40;;;17.50;;
12591;SDS011;6361;52.120;5.108;2023-03-02T09:19:02;31.75;;;17.13;;
12591;SDS011;6361;52.120;5.108;2023-03-02T09:21:28;30.92;;;17.00;;
12591;SDS011;6361;52.120;5.108;2023-03-02T09:23:53;30.73;;;16.63;;
12591;SDS011;6361;52.120;5.108;2023-03-02T09:26:22;33.15;;;17.40;;
12591;SDS011;6361;52.120;5.108;2023-03-02T09:28:47;35.67;;;17.48;;
12591;SDS011;6361;52.120;5.108;2023-03-02T09:31:13;32.63;;;16.30;;
12591;SDS011;6361;52.120;5.108;2023-03-02T09:33:40;29.90;;;16.58;;
12591;SDS011;6361;52.120;5.108;2023-03-02T09:36:07;34.42;;;17.75;;
12591;SDS011;6361;52.120;5.108;2023-03-02T09:38:33;33.95;;;16.95;;
12591;SDS011;6361;52.120;5.108;2023-03-02T09:41:17;33.35;;;17.63;;
12591;SDS011;6361;52.120;5.108;2023-03-02T09:51:52;32.75;;;17.70;;
12591;SDS011;6361;52.120;5.108;2023-03-02T09:54:24;32.03;;;16.38;;
12591;SDS011;6361;52.120;5.108;2023-03-02T09:56:53;30.00;;;16.52;;
12591;SDS011;6361;52.120;5.108;2023-03-02T10:00:05;32.28;;;16.45;;
12591;SDS011;6361;52.120;5.108;2023-03-02T10:04:49;30.15;;;15.68;;
12591;SDS011;6361;52.120;5.108;2023-03-02T10:07:27;30.40;;;15.60;;
12591;SDS011;6361;52.120;5.108;2023-03-02T10:10:00;28.17;;;15.10;;
12591;SDS011;6361;52.120;5.108;2023-03-02T10:15:21;30.30;;;16.23;;
12591;SDS011;6361;52.120;5.108;2023-03-02T10:20:50;30.77;;;15.35;;
12591;SDS011;6361;52.120;5.108;2023-03-02T10:25:53;30.35;;;17.63;;
12591;SDS011;6361;52.120;5.108;2023-03-02T10:28:26;32.80;;;16.40;;
12591;SDS011;6361;52.120;5.108;2023-03-02T10:30:57;29.85;;;16.98;;
12591;SDS011;6361;52.120;5.108;2023-03-02T10:33:36;28.48;;;15.20;;
12591;SDS011;6361;52.120;5.108;2023-03-02T10:36:03;28.15;;;15.40;;
12591;SDS011;6361;52.120;5.108;2023-03-02T10:38:30;29.50;;;15.88;;
12591;SDS011;6361;52.120;5.108;2023-03-02T10:46:01;27.65;;;15.52;;
12591;SDS011;6361;52.120;5.108;2023-03-02T10:48:28;29.17;;;15.88;;
12591;SDS011;6361;52.120;5.108;2023-03-02T10:50:54;33.72;;;16.15;;
12591;SDS011;6361;52.120;5.108;2023-03-02T10:53:21;30.25;;;16.30;;
12591;SDS011;6361;52.120;5.108;2023-03-02T10:55:47;32.05;;;16.60;;
12591;SDS011;6361;52.120;5.108;2023-03-02T10:58:25;28.58;;;15.20;;
12591;SDS011;6361;52.120;5.108;2023-03-02T11:01:01;28.70;;;16.58;;
12591;SDS011;6361;52.120;5.108;2023-03-02T11:03:29;30.95;;;16.88;;
12591;SDS011;6361;52.120;5.108;2023-03-02T11:05:55;31.58;;;16.95;;
12591;SDS011;6361;52.120;5.108;2023-03-02T11:08:23;27.20;;;15.65;;
12591;SDS011;6361;52.120;5.108;2023-03-02T11:11:00;30.98;;;16.30;;
12591;SDS011;6361;52.120;5.108;2023-03-02T11:15:55;31.00;;;17.15;;
12591;SDS011;6361;52.120;5.108;2023-03-02T11:21:00;30.17;;;16.60;;
12591;SDS011;6361;52.120;5.108;2023-03-02T11:26:14;30.95;;;18.50;;
12591;SDS011;6361;52.120;5.108;2023-03-02T11:28:47;33.03;;;18.23;;
12591;SDS011;6361;52.120;5.108;2023-03-02T11:31:21;30.70;;;16.83;;
12591;SDS011;6361;52.120;5.108;2023-03-02T11:34:01;31.85;;;17.05;;
12591;SDS011;6361;52.120;5.108;2023-03-02T11:42:19;30.90;;;17.05;;
12591;SDS011;6361;52.120;5.108;2023-03-02T11:44:45;32.42;;;18.10;;
12591;SDS011;6361;52.120;5.108;2023-03-02T11:47:12;31.15;;;17.13;;
12591;SDS011;6361;52.120;5.108;2023-03-02T11:49:41;29.10;;;16.83;;
12591;SDS011;6361;52.120;5.108;2023-03-02T11:52:16;29.08;;;17.00;;
12591;SDS011;6361;52.120;5.108;2023-03-02T11:54:44;31.67;;;17.67;;
12591;SDS011;6361;52.120;5.108;2023-03-02T11:57:34;29.42;;;17.10;;
12591;SDS011;6361;52.120;5.108;2023-03-02T12:00:02;27.98;;;16.10;;
12591;SDS011;6361;52.120;5.108;2023-03-02T12:02:29;25.20;;;15.07;;
12591;SDS011;6361;52.120;5.108;2023-03-02T12:05:02;28.10;;;15.90;;
12591;SDS011;6361;52.120;5.108;2023-03-02T12:10:06;27.80;;;15.52;;
12591;SDS011;6361;52.120;5.108;2023-03-02T12:15:46;32.35;;;17.73;;
12591;SDS011;6361;52.120;5.108;2023-03-02T12:23:56;28.55;;;16.20;;
12591;SDS011;6361;52.120;5.108;2023-03-02T12:31:26;27.20;;;16.80;;
12591;SDS011;6361;52.120;5.108;2023-03-02T12:36:42;30.17;;;16.58;;
12591;SDS011;6361;52.120;5.108;2023-03-02T12:44:15;27.50;;;16.40;;
12591;SDS011;6361;52.120;5.108;2023-03-02T12:47:20;26.15;;;15.63;;
12591;SDS011;6361;52.120;5.108;2023-03-02T12:49:52;27.13;;;16.48;;
12591;SDS011;6361;52.120;5.108;2023-03-02T12:54:58;25.50;;;15.13;;
12591;SDS011;6361;52.120;5.108;2023-03-02T12:57:26;25.42;;;15.13;;
12591;SDS011;6361;52.120;5.108;2023-03-02T12:59:53;26.55;;;15.07;;
12591;SDS011;6361;52.120;5.108;2023-03-02T13:02:21;26.00;;;15.13;;
12591;SDS011;6361;52.120;5.108;2023-03-02T13:04:54;26.92;;;15.05;;
12591;SDS011;6361;52.120;5.108;2023-03-02T13:07:26;26.02;;;15.48;;
12591;SDS011;6361;52.120;5.108;2023-03-02T13:09:53;28.35;;;16.10;;
12591;SDS011;6361;52.120;5.108;2023-03-02T13:12:19;25.08;;;15.23;;
12591;SDS011;6361;52.120;5.108;2023-03-02T13:14:52;26.27;;;15.57;;
12591;SDS011;6361;52.120;5.108;2023-03-02T13:17:20;26.77;;;15.55;;
12591;SDS011;6361;52.120;5.108;2023-03-02T13:19:49;26.08;;;15.18;;
12591;SDS011;6361;52.120;5.108;2023-03-02T13:22:14;24.77;;;14.70;;
12591;SDS011;6361;52.120;5.108;2023-03-02T13:27:19;22.15;;;14.00;;
12591;SDS011;6361;52.120;5.108;2023-03-02T13:29:48;22.35;;;14.07;;
12591;SDS011;6361;52.120;5.108;2023-03-02T13:32:18;23.15;;;14.30;;
12591;SDS011;6361;52.120;5.108;2023-03-02T13:34:58;24.50;;;14.98;;
12591;SDS011;6361;52.120;5.108;2023-03-02T13:37:39;25.17;;;14.82;;
12591;SDS011;6361;52.120;5.108;2023-03-02T13:42:51;24.60;;;13.77;;
12591;SDS011;6361;52.120;5.108;2023-03-02T13:45:21;24.98;;;14.57;;
12591;SDS011;6361;52.120;5.108;2023-03-02T13:47:47;25.05;;;13.68;;
12591;SDS011;6361;52.120;5.108;2023-03-02T13:50:19;26.02;;;14.10;;
12591;SDS011;6361;52.120;5.108;2023-03-02T13:52:47;24.13;;;14.18;;
12591;SDS011;6361;52.120;5.108;2023-03-02T13:55:14;22.65;;;14.32;;
12591;SDS011;6361;52.120;5.108;2023-03-02T13:57:40;20.20;;;13.10;;
12591;SDS011;6361;52.120;5.108;2023-03-02T14:00:09;20.40;;;13.00;;
12591;SDS011;6361;52.120;5.108;2023-03-02T14:02:37;22.60;;;13.02;;
12591;SDS011;6361;52.120;5.108;2023-03-02T14:05:02;20.33;;;12.68;;
12591;SDS011;6361;52.120;5.108;2023-03-02T14:07:30;21.67;;;13.27;;
12591;SDS011;6361;52.120;5.108;2023-03-02T14:09:55;20.35;;;13.10;;
12591;SDS011;6361;52.120;5.108;2023-03-02T14:12:25;21.70;;;13.52;;
12591;SDS011;6361;52.120;5.108;2023-03-02T14:14:52;22.92;;;13.20;;
12591;SDS011;6361;52.120;5.108;2023-03-02T14:17:21;22.45;;;13.18;;
12591;SDS011;6361;52.120;5.108;2023-03-02T14:19:47;19.40;;;12.25;;
12591;SDS011;6361;52.120;5.108;2023-03-02T14:22:16;17.48;;;11.40;;
12591;SDS011;6361;52.120;5.108;2023-03-02T14:24:45;20.60;;;12.13;;
12591;SDS011;6361;52.120;5.108;2023-03-02T14:27:13;16.48;;;11.32;;
12591;SDS011;6361;52.120;5.108;2023-03-02T14:29:40;17.83;;;11.40;;
12591;SDS011;6361;52.120;5.108;2023-03-02T14:32:05;17.65;;;11.30;;
12591;SDS011;6361;52.120;5.108;2023-03-02T14:34:31;19.92;;;11.68;;
12591;SDS011;6361;52.120;5.108;2023-03-02T14:36:58;19.80;;;11.77;;
12591;SDS011;6361;52.120;5.108;2023-03-02T14:39:40;16.48;;;10.70;;
12591;SDS011;6361;52.120;5.108;2023-03-02T14:42:12;17.65;;;11.10;;
12591;SDS011;6361;52.120;5.108;2023-03-02T14:44:39;20.67;;;11.68;;
12591;SDS011;6361;52.120;5.108;2023-03-02T14:47:05;17.58;;;11.75;;
12591;SDS011;6361;52.120;5.108;2023-03-02T14:49:31;16.45;;;11.13;;
12591;SDS011;6361;52.120;5.108;2023-03-02T14:52:00;17.08;;;11.18;;
12591;SDS011;6361;52.120;5.108;2023-03-02T14:54:29;16.40;;;11.13;;
12591;SDS011;6361;52.120;5.108;2023-03-02T14:57:01;17.17;;;10.98;;
12591;SDS011;6361;52.120;5.108;2023-03-02T14:59:30;17.10;;;11.48;;
12591;SDS011;6361;52.120;5.108;2023-03-02T15:01:55;19.77;;;11.80;;
12591;SDS011;6361;52.120;5.108;2023-03-02T15:04:20;17.55;;;12.05;;
12591;SDS011;6361;52.120;5.108;2023-03-02T15:06:46;19.25;;;12.27;;
12591;SDS011;6361;52.120;5.108;2023-03-02T15:09:11;18.55;;;11.95;;
12591;SDS011;6361;52.120;5.108;2023-03-02T15:11:37;18.73;;;12.95;;
12591;SDS011;6361;52.120;5.108;2023-03-02T15:14:02;19.45;;;12.65;;
12591;SDS011;6361;52.120;5.108;2023-03-02T15:16:27;21.27;;;12.57;;
12591;SDS011;6361;52.120;5.108;2023-03-02T15:18:53;19.75;;;12.32;;
12591;SDS011;6361;52.120;5.108;2023-03-02T15:21:20;20.45;;;13.20;;
12591;SDS011;6361;52.120;5.108;2023-03-02T15:23:46;19.70;;;12.68;;
12591;SDS011;6361;52.120;5.108;2023-03-02T15:26:12;20.15;;;13.18;;
12591;SDS011;6361;52.120;5.108;2023-03-02T15:28:37;20.60;;;13.80;;
12591;SDS011;6361;52.120;5.108;2023-03-02T15:31:14;21.25;;;13.10;;
12591;SDS011;6361;52.120;5.108;2023-03-02T15:33:40;23.33;;;13.23;;
12591;SDS011;6361;52.120;5.108;2023-03-02T15:36:09;17.77;;;12.32;;
12591;SDS011;6361;52.120;5.108;2023-03-02T15:38:35;20.15;;;13.15;;
12591;SDS011;6361;52.120;5.108;2023-03-02T15:41:07;19.58;;;12.63;;
12591;SDS011;6361;52.120;5.108;2023-03-02T15:43:35;20.38;;;13.18;;
12591;SDS011;6361;52.120;5.108;2023-03-02T15:46:00;19.10;;;12.45;;
12591;SDS011;6361;52.120;5.108;2023-03-02T15:48:26;18.35;;;12.10;;
12591;SDS011;6361;52.120;5.108;2023-03-02T15:50:57;18.85;;;12.27;;
12591;SDS011;6361;52.120;5.108;2023-03-02T15:53:23;19.02;;;12.52;;
12591;SDS011;6361;52.120;5.108;2023-03-02T15:55:48;18.38;;;12.73;;
12591;SDS011;6361;52.120;5.108;2023-03-02T15:58:13;19.88;;;13.27;;